Time;durP1;ratioP1;P1;durP2;ratioP2;P2;SDS_P1;SDS_P2;PMS_P1;PMS_P2;Temp;Humidity;BMP_temperature;BMP_pressure;BME280_temperature;BME280_humidity;BME280_pressure;Samples;Min_cycle;Max_cycle;Signal;HPM_P1;HPM_P2
2022/12/18 00:02:31;;;;;;;66.90;32.10;;;;;;;-4.58;91.00;99979.89;419623;1304;107301;-38
2022/12/18 00:12:38;;;;;;;63.80;28.10;;;;;;;-4.52;91.01;99996.84;419648;1302;101543;-40
2022/12/18 00:22:45;;;;;;;74.90;28.60;;;;;;;-4.50;91.21;100008.92;419736;1302;108292;-41
2022/12/18 00:32:53;;;;;;;89.40;34.50;;;;;;;-4.60;91.35;100013.85;419736;1299;99233;-39
2022/12/18 00:43:00;;;;;;;71.70;29.40;;;;;;;-4.66;91.36;100017.36;419720;1302;110760;-39
2022/12/18 00:53:07;;;;;;;64.20;24.90;;;;;;;-4.64;91.10;100029.27;419647;1306;108498;-41
2022/12/18 01:03:13;;;;;;;59.40;26.00;;;;;;;-4.64;90.96;100048.21;419708;1303;99338;-40
2022/12/18 01:13:21;;;;;;;87.30;29.90;;;;;;;-4.61;91.12;100062.81;419949;1292;107256;-39
2022/12/18 01:23:28;;;;;;;76.30;27.80;;;;;;;-4.66;91.15;100075.19;419945;1299;99233;-39
2022/12/18 01:33:36;;;;;;;75.60;28.20;;;;;;;-4.75;91.14;100088.46;419957;1296;111947;-40
2022/12/18 01:43:44;;;;;;;69.90;28.80;;;;;;;-4.83;91.07;100098.67;419796;1285;107929;-42
2022/12/18 01:53:52;;;;;;;80.00;34.30;;;;;;;-4.83;91.01;100101.05;419900;1302;98986;-40
2022/12/18 02:14:38;;;;;;;73.40;32.00;;;;;;;-4.63;90.97;100117.51;419861;1300;98056;-40
2022/12/18 02:24:55;;;;;;;79.80;30.90;;;;;;;-4.63;91.12;100129.70;419867;1303;110961;-40
2022/12/18 02:35:05;;;;;;;73.00;29.00;;;;;;;-4.72;91.00;100142.51;421979;1270;494387;-40
2022/12/18 02:45:13;;;;;;;66.40;28.30;;;;;;;-4.81;91.02;100158.36;421537;1299;97979;-40
2022/12/18 02:55:21;;;;;;;75.60;29.20;;;;;;;-4.87;91.03;100165.26;421494;1289;108652;-41
2022/12/18 03:05:31;;;;;;;109.20;37.00;;;;;;;-4.90;91.05;100171.48;421530;1289;98376;-41
2022/12/18 03:15:39;;;;;;;66.60;26.50;;;;;;;-4.94;91.04;100177.39;421466;1298;111641;-39
2022/12/18 03:25:47;;;;;;;56.90;26.80;;;;;;;-4.92;90.92;100194.99;421494;1299;107669;-40
2022/12/18 03:35:56;;;;;;;52.60;21.20;;;;;;;-4.79;90.80;100202.63;421503;1295;99224;-40
2022/12/18 03:46:07;;;;;;;89.00;33.90;;;;;;;-4.77;90.88;100210.22;421466;1289;106491;-40
2022/12/18 03:56:17;;;;;;;81.80;31.10;;;;;;;-4.79;90.86;100219.64;421481;1286;99245;-44
2022/12/18 04:06:25;;;;;;;123.20;41.90;;;;;;;-4.86;90.78;100232.15;421510;1298;111668;-40
2022/12/18 04:16:32;;;;;;;64.20;24.50;;;;;;;-4.96;90.73;100240.30;421432;1290;107933;-40
2022/12/18 04:26:40;;;;;;;66.90;24.10;;;;;;;-5.02;90.87;100250.79;421436;1301;98853;-42
2022/12/18 04:46:53;;;;;;;49.40;21.20;;;;;;;-5.08;90.49;100272.96;421651;1292;99207;-40
2022/12/18 04:57:01;;;;;;;72.00;27.30;;;;;;;-5.08;90.33;100281.73;421592;1299;111761;-40
2022/12/18 05:07:09;;;;;;;61.30;23.00;;;;;;;-4.92;90.37;100286.33;421654;1298;108655;-40
2022/12/18 05:17:16;;;;;;;66.40;23.10;;;;;;;-5.07;90.42;100289.94;421746;1298;98018;-40
2022/12/18 05:27:23;;;;;;;83.50;28.70;;;;;;;-5.21;90.48;100302.98;421652;1298;111537;-40
2022/12/18 05:37:30;;;;;;;56.20;21.40;;;;;;;-5.39;90.36;100315.69;421768;1293;109345;-39
2022/12/18 05:47:38;;;;;;;59.10;20.00;;;;;;;-5.51;90.37;100326.70;421532;1299;99237;-40
2022/12/18 05:57:44;;;;;;;56.80;24.00;;;;;;;-5.48;90.15;100338.38;421680;1298;111735;-39
2022/12/18 06:07:52;;;;;;;80.90;32.40;;;;;;;-5.36;90.29;100349.09;421493;1297;109440;-39
2022/12/18 06:18:01;;;;;;;63.90;28.20;;;;;;;-5.20;90.20;100365.69;421451;1291;99017;-40
2022/12/18 06:28:07;;;;;;;57.50;27.00;;;;;;;-5.07;90.34;100379.67;421381;1281;108443;-39
2022/12/18 06:38:13;;;;;;;55.90;24.50;;;;;;;-4.91;90.44;100387.59;421572;1290;98365;-39
2022/12/18 06:48:21;;;;;;;70.80;29.10;;;;;;;-4.86;90.43;100409.81;421646;1299;112315;-40
2022/12/18 06:58:28;;;;;;;85.10;27.70;;;;;;;-5.05;90.18;100432.90;421517;1291;108820;-39
2022/12/18 07:08:35;;;;;;;51.90;20.50;;;;;;;-5.28;90.20;100448.60;421541;1297;99224;-40
2022/12/18 07:18:43;;;;;;;54.00;20.50;;;;;;;-5.27;90.46;100459.73;421623;1298;108820;-39
2022/12/18 07:28:51;;;;;;;112.00;40.70;;;;;;;-5.24;90.28;100470.90;421561;1287;101368;-40
2022/12/18 07:38:58;;;;;;;68.40;24.40;;;;;;;-5.27;90.14;100485.20;421573;1289;110407;-39
2022/12/18 07:49:06;;;;;;;54.40;19.20;;;;;;;-5.15;90.22;100496.39;421515;1291;108329;-40
2022/12/18 07:59:13;;;;;;;60.50;24.90;;;;;;;-5.10;89.95;100493.20;421535;1294;99104;-40
2022/12/18 08:09:20;;;;;;;43.40;22.30;;;;;;;-4.92;90.03;100501.67;421376;1298;107256;-39
2022/12/18 08:19:28;;;;;;;76.20;27.30;;;;;;;-4.78;90.10;100504.45;421647;1283;98834;-40
2022/12/18 08:29:35;;;;;;;80.90;30.80;;;;;;;-4.72;90.05;100502.06;421600;1298;111482;-41
2022/12/18 08:39:42;;;;;;;65.70;21.90;;;;;;;-4.61;89.97;100509.88;421519;1282;107254;-39
2022/12/18 08:49:50;;;;;;;57.60;22.90;;;;;;;-4.42;90.08;100531.15;421591;1298;98859;-40
2022/12/18 08:59:57;;;;;;;51.00;18.80;;;;;;;-4.25;89.83;100536.76;421552;1298;107434;-41
2022/12/18 09:10:05;;;;;;;52.60;22.40;;;;;;;-4.06;89.80;100554.89;421428;1290;99287;-40
2022/12/18 09:20:13;;;;;;;55.20;21.40;;;;;;;-3.58;89.96;100561.52;421503;1298;112381;-40
2022/12/18 09:30:20;;;;;;;56.20;23.70;;;;;;;-3.26;89.58;100561.44;421671;1298;107670;-40
2022/12/18 09:40:33;;;;;;;39.00;17.00;;;;;;;-3.03;89.21;100571.41;421676;1292;99224;-40
2022/12/18 09:50:42;;;;;;;98.00;41.90;;;;;;;-3.19;88.46;100565.48;421785;1298;107574;-40
2022/12/18 10:00:52;;;;;;;102.30;40.90;;;;;;;-3.25;88.74;100565.52;421749;1291;99273;-40
2022/12/18 10:11:03;;;;;;;69.90;29.10;;;;;;;-3.24;88.72;100572.02;421659;1298;111702;-40
2022/12/18 10:21:14;;;;;;;67.80;28.70;;;;;;;-3.24;88.82;100556.86;421583;1289;108723;-40
2022/12/18 10:31:24;;;;;;;63.20;25.20;;;;;;;-3.33;88.84;100548.59;421603;1291;99258;-39
2022/12/18 10:41:32;;;;;;;50.20;20.20;;;;;;;-3.13;88.83;100555.66;421749;1298;107877;-41
2022/12/18 10:51:40;;;;;;;60.60;22.10;;;;;;;-3.15;88.38;100543.02;421548;1298;98831;-38
2022/12/18 11:01:51;;;;;;;73.10;30.00;;;;;;;-3.14;88.28;100522.21;421572;1290;111793;-40
2022/12/18 11:11:58;;;;;;;64.70;24.90;;;;;;;-2.99;88.19;100525.42;421437;1289;108711;-40
2022/12/18 11:22:19;;;;;;;42.20;18.30;;;;;;;-3.20;87.54;100535.58;421547;1289;98031;-41
2022/12/18 11:32:27;;;;;;;43.00;17.30;;;;;;;-3.25;87.53;100539.48;421512;1289;109625;-39
2022/12/18 11:42:33;;;;;;;52.30;21.50;;;;;;;-3.20;87.64;100540.02;421663;1292;99411;-40
2022/12/18 11:52:42;;;;;;;85.30;35.10;;;;;;;-3.29;87.61;100532.15;421465;1298;114296;-40
2022/12/18 12:02:59;;;;;;;48.20;22.60;;;;;;;-2.94;87.55;100533.94;421487;1298;106714;-40
2022/12/18 12:23:19;;;;;;;52.80;22.30;;;;;;;-3.40;87.32;100562.16;421418;1283;106404;-39
2022/12/18 12:33:35;;;;;;;42.60;19.50;;;;;;;-3.52;87.11;100562.85;421332;1289;98091;-41
2022/12/18 12:54:14;;;;;;;51.40;24.20;;;;;;;-3.69;87.15;100568.92;421329;1296;108119;-40
2022/12/18 13:14:27;;;;;;;53.10;22.00;;;;;;;-3.82;87.01;100585.52;421654;1289;108833;-40
2022/12/18 13:24:34;;;;;;;53.30;20.90;;;;;;;-3.84;86.96;100590.61;421483;1289;99258;-40
2022/12/18 13:34:42;;;;;;;43.70;19.50;;;;;;;-3.78;87.05;100593.71;421410;1289;112992;-40
2022/12/18 13:44:50;;;;;;;72.70;29.20;;;;;;;-3.90;86.90;100595.15;421707;1294;107840;-39
2022/12/18 13:55:00;;;;;;;64.60;28.90;;;;;;;-4.11;86.94;100605.67;421665;1284;118178;-41
2022/12/18 14:05:23;;;;;;;73.90;29.00;;;;;;;-4.54;86.60;100612.73;421583;1298;108676;-44
2022/12/18 14:15:27;;;;;;;102.70;36.60;;;;;;;-5.03;86.59;100606.65;421632;1298;99246;-40
2022/12/18 14:25:35;;;;;;;72.00;31.20;;;;;;;-5.53;86.58;100602.61;421649;1287;110479;-40
2022/12/18 14:35:44;;;;;;;70.80;33.10;;;;;;;-5.98;86.20;100606.30;421223;1289;266800;-41
2022/12/18 14:45:51;;;;;;;65.80;32.00;;;;;;;-6.35;86.00;100600.21;421504;1291;99218;-40
2022/12/18 14:55:58;;;;;;;60.20;29.80;;;;;;;-6.65;85.96;100617.77;421675;1297;107308;-39
2022/12/18 15:06:17;;;;;;;66.90;31.50;;;;;;;-7.03;85.66;100628.30;421774;1295;99262;-40
2022/12/18 15:16:22;;;;;;;;;;;;;;;-7.44;85.62;100632.69;421693;1289;111378;-41
2022/12/18 15:26:39;;;;;;;83.70;41.30;;;;;;;-7.95;85.42;100652.81;421584;1294;108252;-40
2022/12/18 15:36:47;;;;;;;85.20;43.30;;;;;;;-8.23;85.50;100657.75;421620;1298;99077;-40
2022/12/18 15:46:54;;;;;;;112.40;48.50;;;;;;;-8.45;85.31;100673.52;421546;1290;110054;-40
2022/12/18 16:07:27;;;;;;;127.10;61.90;;;;;;;-9.12;85.16;100668.02;421491;1298;111023;-41
2022/12/18 16:17:37;;;;;;;153.40;67.20;;;;;;;-9.37;85.19;100680.86;421453;1298;109420;-40
2022/12/18 16:27:44;;;;;;;157.70;73.40;;;;;;;-9.49;85.48;100683.16;421429;1286;99246;-39
2022/12/18 16:37:53;;;;;;;154.70;72.20;;;;;;;-9.68;85.32;100690.30;421360;1295;107307;-40
2022/12/18 16:48:00;;;;;;;184.30;85.40;;;;;;;-9.74;85.30;100681.79;421625;1289;99234;-40
2022/12/18 16:58:07;;;;;;;217.60;99.50;;;;;;;-9.89;85.25;100674.79;421488;1299;111482;-40
2022/12/18 17:08:14;;;;;;;205.60;92.50;;;;;;;-9.75;86.01;100662.02;421507;1298;108440;-40
2022/12/18 17:18:21;;;;;;;208.50;94.20;;;;;;;-9.51;86.08;100638.67;421550;1289;99227;-40
2022/12/18 17:28:29;;;;;;;255.70;110.00;;;;;;;-9.28;86.37;100624.89;421438;1289;107339;-39
2022/12/18 17:38:37;;;;;;;192.50;93.10;;;;;;;-9.04;86.63;100630.65;421470;1298;99233;-41
2022/12/18 17:48:44;;;;;;;175.60;79.50;;;;;;;-8.91;86.27;100647.10;421601;1289;112334;-41
2022/12/18 17:58:52;;;;;;;174.80;76.20;;;;;;;-9.18;85.43;100659.52;421626;1299;107666;-41
2022/12/18 18:08:59;;;;;;;166.20;73.80;;;;;;;-9.56;85.00;100670.42;421623;1297;99217;-39
2022/12/18 18:19:10;;;;;;;162.30;72.50;;;;;;;-9.79;85.12;100668.31;421587;1294;108510;-41
2022/12/18 18:29:20;;;;;;;150.40;70.10;;;;;;;-9.97;85.19;100659.50;421587;1298;98021;-40
2022/12/18 18:39:28;;;;;;;151.80;68.80;;;;;;;-10.08;85.24;100672.35;421646;1285;111551;-40
2022/12/18 18:49:35;;;;;;;135.50;64.20;;;;;;;-10.05;85.62;100684.72;421517;1298;107499;-40
2022/12/18 18:59:42;;;;;;;98.50;50.80;;;;;;;-9.96;85.56;100698.04;421729;1299;99336;-40
2022/12/18 19:19:57;;;;;;;133.60;62.40;;;;;;;-10.02;85.67;100714.27;421489;1298;99236;-43
2022/12/18 19:30:05;;;;;;;117.80;52.80;;;;;;;-10.08;85.65;100716.52;421512;1298;111052;-40
2022/12/18 19:40:12;;;;;;;130.90;54.40;;;;;;;-9.90;86.23;100715.77;421541;1298;108465;-40
2022/12/18 19:50:20;;;;;;;107.80;48.40;;;;;;;-9.75;86.16;100716.63;421561;1287;98604;-40
2022/12/18 20:00:27;;;;;;;101.70;42.00;;;;;;;-9.59;86.29;100713.04;421491;1288;109348;-39
2022/12/18 20:10:34;;;;;;;88.10;35.80;;;;;;;-9.30;86.50;100701.11;421502;1299;98844;-39
2022/12/18 20:20:40;;;;;;;86.70;35.50;;;;;;;-9.16;86.50;100706.10;421590;1299;111687;-39
2022/12/18 20:30:46;;;;;;;87.50;37.60;;;;;;;-9.16;86.21;100689.38;421401;1294;107777;-39
2022/12/18 20:40:54;;;;;;;97.30;42.40;;;;;;;-9.14;86.41;100678.87;421219;1298;98053;-40
2022/12/18 20:50:59;;;;;;;81.50;34.30;;;;;;;-9.10;86.36;100666.38;421284;1298;107846;-41
2022/12/18 21:01:12;;;;;;;84.60;36.90;;;;;;;-9.01;86.48;100658.19;421103;1303;98535;-41
2022/12/18 21:21:54;;;;;;;67.80;27.50;;;;;;;-8.70;86.90;100668.35;421531;1292;108814;-40
2022/12/18 21:32:02;;;;;;;67.80;29.00;;;;;;;-8.59;87.05;100673.71;421682;1298;98851;-40
2022/12/18 22:02:41;;;;;;;62.30;29.60;;;;;;;-8.90;86.29;100641.73;421645;1289;112349;-41
2022/12/18 22:12:49;;;;;;;62.30;27.50;;;;;;;-9.12;86.24;100641.89;421671;1298;107303;-39
2022/12/18 22:23:01;;;;;;;56.50;25.80;;;;;;;-9.27;86.40;100630.30;421556;1287;99268;-40
2022/12/18 22:33:12;;;;;;;66.50;28.40;;;;;;;-9.34;86.39;100621.68;421524;1298;106979;-40
2022/12/18 22:43:20;;;;;;;72.50;31.40;;;;;;;-9.42;86.11;100619.05;421476;1299;98022;-41
2022/12/18 22:53:27;;;;;;;79.30;33.40;;;;;;;-9.30;86.66;100623.94;422287;1288;111551;-40
2022/12/18 23:03:35;;;;;;;85.80;35.60;;;;;;;-9.26;86.44;100630.08;421569;1299;108537;-40
2022/12/18 23:13:43;;;;;;;79.20;32.80;;;;;;;-9.38;86.23;100626.27;421437;1295;99360;-40
2022/12/18 23:23:50;;;;;;;60.20;27.80;;;;;;;-9.42;86.38;100624.71;421452;1287;107633;-39
2022/12/18 23:33:59;;;;;;;58.10;22.20;;;;;;;-9.50;86.30;100619.85;421543;1295;98035;-41
2022/12/18 23:44:06;;;;;;;58.60;24.60;;;;;;;-9.48;86.51;100617.75;421475;1299;111923;-40
2022/12/18 23:54:13;;;;;;;57.80;24.90;;;;;;;-9.49;86.61;100609.08;421385;1299;108450;-40
